Leakey, Texas
Current Conditions -  °F | °C
As of 10:10 AM on Sunday 21 Dec 2014 (Local Time) from KECU Reporting Station
Haze Haze  
Wind Chill: 40°   Ceiling: 100
Heat Index: 45°   Visibility: 0.75mi
Dew Point: 45°   Wind: 8mph
Humidity: 100%   Direction: 210°SSW
Pressure: 30.08"   Gusts: NA
Location:  29.73°N, 99.76°W
Report Text: KECU 211610Z AUTO 21007KT 3/4SM BR OVC001 07/07 A3008 RMK AO2
Loading
Personal Weather Stations






























Interactive Weather Map New forecast layout! Learn more

10-Day Weather Forecast

Advertisements
Track Severe Weather on mobile